Time;durP1;ratioP1;P1;durP2;ratioP2;P2;SDS_P1;SDS_P2;PMS_P1;PMS_P2;Temp;Humidity;BMP_temperature;BMP_pressure;BME280_temperature;BME280_humidity;BME280_pressure;Samples;Min_cycle;Max_cycle;Signal;HPM_P1;HPM_P2
2022/07/27 00:01:03;;;;;;;10.07;2.05;;;16.50;99.90;;;;;;5044580;28;20113;-79
2022/07/27 00:03:29;;;;;;;10.38;2.08;;;16.40;99.90;;;;;;5050147;28;20055;-79
2022/07/27 00:05:54;;;;;;;6.20;1.98;;;16.40;99.90;;;;;;5058140;28;20460;-79
2022/07/27 00:08:22;;;;;;;8.43;2.13;;;16.30;99.90;;;;;;5046210;28;20033;-79
2022/07/27 00:10:48;;;;;;;14.18;2.28;;;16.30;99.90;;;;;;5055766;28;20017;-79
2022/07/27 00:13:14;;;;;;;10.05;1.73;;;16.20;99.90;;;;;;5038838;28;20029;-79
2022/07/27 00:15:40;;;;;;;6.90;1.65;;;16.20;99.90;;;;;;5038362;28;20033;-79
2022/07/27 00:18:05;;;;;;;12.02;1.90;;;16.20;99.90;;;;;;5038072;28;20075;-79
2022/07/27 00:20:31;;;;;;;11.73;2.38;;;16.10;99.90;;;;;;5037462;28;20033;-79
2022/07/27 00:22:58;;;;;;;12.40;2.05;;;16.10;99.90;;;;;;5026531;28;20038;-79
2022/07/27 00:25:25;;;;;;;11.68;2.00;;;16.10;99.90;;;;;;5033037;28;20481;-79
2022/07/27 00:27:51;;;;;;;9.07;1.80;;;16.10;99.90;;;;;;5035918;28;20377;-79
2022/07/27 00:30:17;;;;;;;14.40;2.13;;;16.00;99.90;;;;;;5048944;28;20036;-79
2022/07/27 00:32:42;;;;;;;6.90;1.38;;;16.00;99.90;;;;;;5034264;28;20465;-79
2022/07/27 00:35:09;;;;;;;9.02;1.85;;;16.00;99.90;;;;;;5035688;28;20484;-79
2022/07/27 00:37:35;;;;;;;9.05;1.95;;;16.10;99.90;;;;;;5034730;28;20187;-79
2022/07/27 00:40:01;;;;;;;7.57;1.40;;;16.00;99.90;;;;;;5035071;28;20060;-80
2022/07/27 00:42:27;;;;;;;9.40;1.98;;;16.00;99.90;;;;;;5035703;28;20032;-79
2022/07/27 00:44:53;;;;;;;7.07;1.58;;;16.00;99.90;;;;;;5039656;28;20060;-79
2022/07/27 00:47:20;;;;;;;10.02;2.30;;;16.00;99.90;;;;;;5040499;28;20021;-79
2022/07/27 00:49:45;;;;;;;5.53;1.70;;;16.00;99.90;;;;;;5036853;28;20040;-79
2022/07/27 00:52:12;;;;;;;9.65;1.67;;;16.00;99.90;;;;;;5037082;28;20032;-79
2022/07/27 00:54:38;;;;;;;6.97;2.10;;;16.00;99.90;;;;;;5037828;28;20029;-79
2022/07/27 00:57:04;;;;;;;6.35;1.50;;;16.00;99.90;;;;;;5053108;28;20025;-79
2022/07/27 00:59:31;;;;;;;10.70;1.88;;;16.00;99.90;;;;;;5035696;28;20104;-79
2022/07/27 01:01:57;;;;;;;14.73;2.08;;;16.00;99.90;;;;;;5034091;28;20103;-79
2022/07/27 01:04:23;;;;;;;10.10;2.85;;;16.00;99.90;;;;;;5035646;28;20033;-79
2022/07/27 01:06:49;;;;;;;7.47;1.85;;;16.00;99.90;;;;;;5023052;28;20041;-79
2022/07/27 01:11:59;;;;;;;7.13;1.60;;;16.00;99.90;;;;;;5024296;28;20037;-79
2022/07/27 01:14:25;;;;;;;8.40;2.00;;;15.90;99.90;;;;;;5041169;28;20029;-79
2022/07/27 01:16:50;;;;;;;8.05;1.83;;;15.90;99.90;;;;;;5034733;28;20076;-79
2022/07/27 01:19:17;;;;;;;10.05;1.58;;;15.80;99.90;;;;;;5049095;28;20980;-79
2022/07/27 01:21:42;;;;;;;8.10;1.67;;;15.80;99.90;;;;;;5034172;28;20037;-79
2022/07/27 01:24:08;;;;;;;9.88;1.75;;;15.80;99.90;;;;;;5036074;28;20025;-79
2022/07/27 01:26:59;;;;;;;9.90;1.70;;;15.90;99.90;;;;;;5047295;28;20122;-79
2022/07/27 01:29:26;;;;;;;11.48;1.70;;;15.80;99.90;;;;;;5027835;28;20025;-79
2022/07/27 01:31:53;;;;;;;8.65;1.73;;;15.80;99.90;;;;;;5018802;28;20054;-79
2022/07/27 01:34:19;;;;;;;8.88;1.60;;;15.80;99.90;;;;;;5018308;28;20081;-80
2022/07/27 01:36:47;;;;;;;10.93;2.38;;;15.80;99.90;;;;;;5034002;28;20061;-79
2022/07/27 01:39:15;;;;;;;7.07;1.75;;;15.80;99.90;;;;;;5034200;28;20034;-79
2022/07/27 01:41:41;;;;;;;11.82;1.95;;;15.80;99.90;;;;;;5030594;28;20438;-79
2022/07/27 01:44:08;;;;;;;9.18;1.50;;;15.80;99.90;;;;;;5028397;28;20095;-79
2022/07/27 01:46:34;;;;;;;13.25;1.67;;;15.80;99.90;;;;;;5034815;28;20424;-79
2022/07/27 01:49:00;;;;;;;10.80;1.77;;;15.80;99.90;;;;;;5032664;28;20059;-79
2022/07/27 01:51:25;;;;;;;7.50;1.55;;;15.80;99.90;;;;;;5033924;28;20113;-79
2022/07/27 01:53:52;;;;;;;10.38;1.90;;;15.80;99.90;;;;;;5035492;28;20034;-79
2022/07/27 01:56:17;;;;;;;11.85;1.85;;;15.80;99.90;;;;;;5044903;28;20407;-79
2022/07/27 01:58:44;;;;;;;9.60;1.90;;;15.80;99.90;;;;;;5018410;28;20025;-80
2022/07/27 02:01:10;;;;;;;6.75;1.67;;;15.80;99.90;;;;;;5042020;28;20021;-79
2022/07/27 02:03:36;;;;;;;8.93;1.55;;;15.80;99.90;;;;;;5041501;28;20028;-79
2022/07/27 02:06:03;;;;;;;16.50;2.22;;;15.80;99.90;;;;;;5052328;28;20029;-79
2022/07/27 02:08:29;;;;;;;8.13;1.85;;;15.80;99.90;;;;;;5030648;28;21959;-79
2022/07/27 02:13:42;;;;;;;9.02;1.75;;;15.80;99.90;;;;;;5038746;28;20083;-79
2022/07/27 02:16:08;;;;;;;11.82;2.35;;;15.70;99.90;;;;;;5035732;28;20056;-79
2022/07/27 02:18:33;;;;;;;7.97;1.88;;;15.70;99.90;;;;;;5033731;28;20022;-79
2022/07/27 02:20:59;;;;;;;11.18;1.90;;;15.70;99.90;;;;;;5031016;28;20022;-80
2022/07/27 02:23:24;;;;;;;14.10;2.45;;;15.70;99.90;;;;;;5032762;28;20067;-79
2022/07/27 02:25:50;;;;;;;7.72;1.48;;;15.70;99.90;;;;;;5016855;28;20030;-79
2022/07/27 02:28:15;;;;;;;7.93;1.75;;;15.70;99.90;;;;;;5023150;28;20072;-79
2022/07/27 02:30:42;;;;;;;12.98;2.08;;;15.60;99.90;;;;;;5013946;28;20077;-79
2022/07/27 02:33:07;;;;;;;9.73;1.60;;;15.60;99.90;;;;;;5031202;28;20039;-79
2022/07/27 02:35:35;;;;;;;11.07;2.10;;;15.60;99.90;;;;;;5031517;28;20033;-79
2022/07/27 02:38:00;;;;;;;12.57;1.90;;;15.60;99.90;;;;;;5021232;28;20120;-79
2022/07/27 02:40:26;;;;;;;6.20;1.83;;;15.60;99.90;;;;;;5033380;28;20108;-79
2022/07/27 02:42:53;;;;;;;4.53;1.30;;;15.60;99.90;;;;;;5033344;28;20021;-79
2022/07/27 02:45:19;;;;;;;6.75;1.45;;;15.50;99.90;;;;;;5033608;28;20025;-79
2022/07/27 02:47:44;;;;;;;3.63;1.40;;;15.60;99.90;;;;;;5036851;28;20153;-79
2022/07/27 02:50:10;;;;;;;7.85;2.05;;;15.50;99.90;;;;;;5040364;28;20033;-79
2022/07/27 02:52:36;;;;;;;7.40;2.03;;;15.50;99.90;;;;;;5031897;28;20029;-79
2022/07/27 02:55:03;;;;;;;7.28;1.80;;;15.50;99.90;;;;;;5032428;28;20033;-79
2022/07/27 02:57:30;;;;;;;8.30;1.80;;;15.50;99.90;;;;;;5032298;28;20091;-79
2022/07/27 02:59:56;;;;;;;14.93;2.33;;;15.50;99.90;;;;;;5021158;28;20073;-80
2022/07/27 03:02:21;;;;;;;9.57;1.92;;;15.50;99.90;;;;;;5026713;28;20366;-79
2022/07/27 03:04:48;;;;;;;6.22;1.45;;;15.40;99.90;;;;;;5013190;28;20026;-79
2022/07/27 03:07:13;;;;;;;10.55;2.15;;;15.40;99.90;;;;;;5026221;28;20100;-79
2022/07/27 03:09:39;;;;;;;7.47;1.70;;;15.40;99.90;;;;;;5031521;28;20124;-79
2022/07/27 03:12:05;;;;;;;9.20;1.63;;;15.40;99.90;;;;;;5032885;28;20021;-79
2022/07/27 03:14:30;;;;;;;13.32;1.88;;;15.40;99.90;;;;;;5028981;28;20385;-79
2022/07/27 03:16:56;;;;;;;9.68;1.95;;;15.30;99.90;;;;;;5035788;28;20042;-79
2022/07/27 03:19:23;;;;;;;11.13;2.63;;;15.30;99.90;;;;;;5032129;28;20024;-79
2022/07/27 03:21:48;;;;;;;6.90;1.67;;;15.30;99.90;;;;;;5037495;28;20041;-79
2022/07/27 03:24:15;;;;;;;8.30;2.05;;;15.30;99.90;;;;;;5031341;28;20021;-79
2022/07/27 03:26:42;;;;;;;7.40;1.80;;;15.30;99.90;;;;;;5031118;28;20032;-79
2022/07/27 03:29:07;;;;;;;7.07;1.73;;;15.20;99.90;;;;;;5032187;28;20033;-79
2022/07/27 03:31:33;;;;;;;11.52;2.42;;;15.20;99.90;;;;;;5029108;28;20049;-79
2022/07/27 03:33:58;;;;;;;9.85;1.90;;;15.10;99.90;;;;;;5010479;28;20754;-79
2022/07/27 03:36:24;;;;;;;7.63;1.70;;;15.10;99.90;;;;;;5031213;28;20122;-79
2022/07/27 03:38:50;;;;;;;9.35;1.83;;;15.10;99.90;;;;;;5032963;28;20033;-79
2022/07/27 03:41:16;;;;;;;9.95;1.52;;;15.10;99.90;;;;;;5028850;28;20022;-79
2022/07/27 03:43:41;;;;;;;9.20;1.73;;;15.10;99.90;;;;;;5032390;28;20473;-79
2022/07/27 03:46:07;;;;;;;13.48;2.03;;;15.00;99.90;;;;;;5039668;28;20103;-79
2022/07/27 03:48:32;;;;;;;7.93;1.90;;;15.00;99.90;;;;;;5046142;28;20059;-79
2022/07/27 03:50:58;;;;;;;11.52;2.05;;;15.00;99.90;;;;;;5032300;28;20393;-79
2022/07/27 03:53:23;;;;;;;6.72;1.33;;;15.00;99.90;;;;;;5032103;28;20041;-79
2022/07/27 03:55:50;;;;;;;16.10;1.80;;;15.00;99.90;;;;;;5036408;28;20029;-79
2022/07/27 03:58:16;;;;;;;10.98;2.05;;;14.90;99.90;;;;;;5014485;28;20025;-79
2022/07/27 04:00:43;;;;;;;7.43;1.88;;;14.90;99.90;;;;;;5032269;28;20025;-78
2022/07/27 04:03:09;;;;;;;6.25;1.70;;;14.80;99.90;;;;;;5036502;28;20075;-79
2022/07/27 04:05:34;;;;;;;4.78;1.13;;;14.80;99.90;;;;;;5029241;28;20029;-79
2022/07/27 04:08:00;;;;;;;8.05;1.73;;;14.70;99.90;;;;;;5030786;28;20056;-79
2022/07/27 04:10:25;;;;;;;8.45;1.67;;;14.70;99.90;;;;;;5041943;28;20030;-79
2022/07/27 04:12:51;;;;;;;4.60;1.40;;;14.70;99.90;;;;;;5036157;28;20037;-79
2022/07/27 04:15:21;;;;;;;7.22;2.00;;;14.70;99.90;;;;;;5035059;28;20029;-79
2022/07/27 04:17:48;;;;;;;11.88;2.40;;;14.70;99.90;;;;;;5026061;28;20524;-79
2022/07/27 04:20:13;;;;;;;6.90;1.25;;;14.60;99.90;;;;;;5046072;28;20448;-79
2022/07/27 04:22:39;;;;;;;9.68;1.50;;;14.60;99.90;;;;;;5019979;28;20022;-79
2022/07/27 04:25:05;;;;;;;8.23;1.50;;;14.50;99.90;;;;;;5037457;28;20053;-79
2022/07/27 04:27:31;;;;;;;5.53;1.48;;;14.50;99.90;;;;;;5034852;28;20115;-79
2022/07/27 04:29:56;;;;;;;4.72;1.05;;;14.50;99.90;;;;;;5035824;28;20038;-79
2022/07/27 04:32:22;;;;;;;8.70;1.15;;;14.50;99.90;;;;;;5035159;28;20095;-79
2022/07/27 04:34:48;;;;;;;11.18;1.42;;;14.60;99.90;;;;;;5033987;28;20026;-79
2022/07/27 04:37:14;;;;;;;15.43;3.05;;;14.60;99.90;;;;;;5029929;28;20476;-79
2022/07/27 04:39:41;;;;;;;13.07;1.60;;;14.60;99.90;;;;;;5033516;28;20033;-79
2022/07/27 04:42:07;;;;;;;6.15;1.23;;;14.60;99.90;;;;;;5026686;28;20385;-79
2022/07/27 04:44:32;;;;;;;9.65;1.63;;;14.70;99.90;;;;;;5031209;28;20025;-79
2022/07/27 04:46:58;;;;;;;9.85;1.80;;;14.70;99.90;;;;;;5035109;28;20037;-79
2022/07/27 04:49:24;;;;;;;10.27;1.85;;;14.80;99.90;;;;;;5048935;28;20492;-79
2022/07/27 04:51:49;;;;;;;6.53;1.75;;;14.80;99.90;;;;;;5041230;28;20121;-79
2022/07/27 04:54:15;;;;;;;10.90;1.77;;;14.90;99.90;;;;;;5015064;28;20034;-79
2022/07/27 04:56:40;;;;;;;7.28;1.40;;;14.90;99.90;;;;;;5021428;28;20087;-79
2022/07/27 04:59:06;;;;;;;8.50;1.70;;;14.90;99.90;;;;;;5035032;28;20521;-79
2022/07/27 05:01:32;;;;;;;5.38;1.50;;;14.90;99.90;;;;;;5034400;28;20021;-79
2022/07/27 05:03:57;;;;;;;12.25;1.42;;;14.90;99.90;;;;;;5015169;28;20022;-79
2022/07/27 05:06:23;;;;;;;11.18;1.88;;;14.90;99.90;;;;;;5016544;28;20025;-79
2022/07/27 05:08:48;;;;;;;6.57;1.60;;;14.90;99.90;;;;;;5038427;28;20033;-79
2022/07/27 05:11:15;;;;;;;15.23;2.55;;;14.90;99.90;;;;;;5034722;28;20053;-79
2022/07/27 05:13:41;;;;;;;8.63;1.55;;;14.90;99.90;;;;;;5034649;28;20017;-79
2022/07/27 05:16:08;;;;;;;7.65;1.90;;;14.90;99.90;;;;;;5033469;28;20453;-79
2022/07/27 05:18:33;;;;;;;7.78;2.00;;;14.90;99.90;;;;;;5035090;28;20079;-79
2022/07/27 05:21:00;;;;;;;17.42;1.98;;;15.00;99.90;;;;;;5031331;28;20404;-79
2022/07/27 05:23:26;;;;;;;5.70;1.73;;;14.90;99.90;;;;;;5033844;28;20030;-79
2022/07/27 05:25:51;;;;;;;8.27;1.63;;;15.00;99.90;;;;;;5033095;28;20076;-79
2022/07/27 05:28:17;;;;;;;5.75;1.40;;;15.00;99.90;;;;;;5033264;28;20049;-79
2022/07/27 05:30:44;;;;;;;6.10;1.48;;;15.00;99.90;;;;;;5034646;28;20453;-79
2022/07/27 05:33:09;;;;;;;7.18;1.65;;;15.00;99.90;;;;;;5034024;28;20075;-80
2022/07/27 05:35:35;;;;;;;9.35;1.75;;;15.00;99.90;;;;;;5034350;28;20029;-80
2022/07/27 05:38:01;;;;;;;7.22;1.77;;;15.00;99.90;;;;;;5036876;28;20020;-80
2022/07/27 05:40:27;;;;;;;6.78;1.02;;;15.00;99.90;;;;;;5037919;28;20469;-80
2022/07/27 05:42:53;;;;;;;8.65;1.35;;;15.00;99.90;;;;;;5035298;28;20469;-79
2022/07/27 05:45:19;;;;;;;7.95;1.92;;;15.00;99.90;;;;;;5032079;28;20017;-79
2022/07/27 05:47:45;;;;;;;5.28;1.20;;;15.00;99.90;;;;;;5044037;28;20041;-80
2022/07/27 05:50:10;;;;;;;8.45;1.40;;;15.00;99.90;;;;;;5034195;28;20366;-79
2022/07/27 05:52:37;;;;;;;9.20;1.73;;;15.00;99.90;;;;;;5034183;28;20021;-79
2022/07/27 05:55:03;;;;;;;12.27;1.50;;;15.00;99.90;;;;;;5035114;28;20103;-79
2022/07/27 05:57:28;;;;;;;8.43;1.85;;;15.00;99.90;;;;;;5035580;28;20034;-79
2022/07/27 05:59:57;;;;;;;9.48;1.45;;;15.00;99.90;;;;;;5029351;28;20030;-79
2022/07/27 06:02:26;;;;;;;13.15;2.63;;;15.00;99.90;;;;;;5032611;28;20033;-79
2022/07/27 06:04:52;;;;;;;8.30;1.38;;;15.00;99.90;;;;;;5032592;28;20014;-79
2022/07/27 06:10:03;;;;;;;9.02;2.13;;;15.10;99.90;;;;;;5028130;28;20071;-79
2022/07/27 06:12:28;;;;;;;4.10;1.23;;;15.10;99.90;;;;;;5032947;28;20112;-79
2022/07/27 06:14:54;;;;;;;6.70;1.42;;;15.00;99.90;;;;;;5024924;28;20030;-80
2022/07/27 06:17:20;;;;;;;9.30;1.55;;;15.00;99.90;;;;;;5033349;28;20033;-80
2022/07/27 06:19:46;;;;;;;6.38;1.23;;;15.00;99.90;;;;;;5033731;28;20017;-79
2022/07/27 06:22:11;;;;;;;9.93;1.77;;;15.10;99.90;;;;;;5044078;28;20039;-79
2022/07/27 06:24:37;;;;;;;6.78;1.83;;;15.10;99.90;;;;;;5034350;28;20029;-80
2022/07/27 06:27:02;;;;;;;8.50;2.20;;;15.20;99.90;;;;;;5032847;28;20116;-79
2022/07/27 06:29:28;;;;;;;8.38;1.60;;;15.20;99.90;;;;;;5015032;28;20049;-79
2022/07/27 06:31:53;;;;;;;10.18;1.50;;;15.20;99.90;;;;;;5032314;28;20061;-80
2022/07/27 06:34:20;;;;;;;10.82;2.15;;;15.20;99.90;;;;;;5024920;28;20033;-79
2022/07/27 06:36:45;;;;;;;8.82;1.58;;;15.10;99.90;;;;;;5034820;28;20067;-79
2022/07/27 06:39:12;;;;;;;8.52;2.05;;;15.20;99.90;;;;;;5033903;28;20027;-79
2022/07/27 06:41:37;;;;;;;5.80;1.67;;;15.20;99.90;;;;;;5034401;28;20026;-79
2022/07/27 06:44:03;;;;;;;9.60;1.88;;;15.30;99.90;;;;;;5033211;28;20028;-79
2022/07/27 06:46:29;;;;;;;11.90;2.00;;;15.40;99.90;;;;;;5015086;28;20039;-79
2022/07/27 06:48:55;;;;;;;10.98;2.35;;;15.50;99.90;;;;;;5043277;28;20051;-79
2022/07/27 06:51:21;;;;;;;9.80;1.63;;;15.50;99.90;;;;;;5043638;28;20032;-79
2022/07/27 06:53:47;;;;;;;8.68;1.75;;;15.50;99.90;;;;;;5052650;28;20452;-79
2022/07/27 06:56:12;;;;;;;12.00;2.70;;;15.50;99.90;;;;;;5036536;28;20033;-79
2022/07/27 06:58:38;;;;;;;11.18;2.47;;;15.50;99.90;;;;;;5018042;28;20100;-79
2022/07/27 07:01:03;;;;;;;9.52;2.08;;;15.50;99.90;;;;;;5027395;28;20025;-79
2022/07/27 07:03:29;;;;;;;6.47;1.67;;;15.40;99.90;;;;;;5030875;28;20040;-79
2022/07/27 07:05:55;;;;;;;8.30;1.50;;;15.40;99.90;;;;;;5033203;28;20020;-79
2022/07/27 07:08:21;;;;;;;22.75;5.05;;;15.50;99.90;;;;;;5029698;28;20365;-79
2022/07/27 07:10:48;;;;;;;9.00;1.52;;;15.60;99.90;;;;;;5016843;28;20104;-79
2022/07/27 07:13:14;;;;;;;8.63;2.42;;;15.60;99.90;;;;;;5013177;28;20037;-79
2022/07/27 07:15:41;;;;;;;8.65;1.83;;;15.70;99.90;;;;;;5013082;28;20028;-79
2022/07/27 07:18:09;;;;;;;16.02;3.65;;;15.70;99.90;;;;;;5013089;28;20084;-79
2022/07/27 07:20:35;;;;;;;10.93;1.67;;;15.80;99.90;;;;;;5013084;28;20014;-79
2022/07/27 07:23:01;;;;;;;8.57;1.63;;;15.90;99.90;;;;;;5012712;28;20026;-79
2022/07/27 07:25:27;;;;;;;4.70;1.58;;;15.90;99.90;;;;;;5012938;28;20030;-79
2022/07/27 07:27:53;;;;;;;10.57;1.95;;;15.90;99.90;;;;;;5012823;28;20046;-79
2022/07/27 07:30:19;;;;;;;9.95;1.95;;;16.00;99.90;;;;;;5013004;28;20416;-78
2022/07/27 07:32:45;;;;;;;6.85;1.80;;;16.00;99.90;;;;;;5013133;28;20054;-79
2022/07/27 07:35:11;;;;;;;8.57;1.63;;;16.00;99.90;;;;;;5012663;28;20061;-80
2022/07/27 07:37:37;;;;;;;6.38;1.35;;;16.10;99.90;;;;;;5012634;28;20036;-79
2022/07/27 07:40:05;;;;;;;13.52;1.75;;;16.20;99.90;;;;;;5013051;28;20404;-80
2022/07/27 07:42:31;;;;;;;13.07;1.70;;;16.20;99.90;;;;;;5016898;28;20041;-79
2022/07/27 07:44:57;;;;;;;5.18;1.13;;;16.20;99.90;;;;;;5016854;28;20026;-79
2022/07/27 07:47:23;;;;;;;6.03;1.42;;;16.20;99.90;;;;;;4999214;28;20034;-79
2022/07/27 07:49:49;;;;;;;8.57;1.35;;;16.20;99.90;;;;;;5016738;28;20022;-79
2022/07/27 07:52:15;;;;;;;6.50;1.27;;;16.30;99.90;;;;;;5016632;28;20432;-80
2022/07/27 07:54:41;;;;;;;6.45;1.02;;;16.30;99.90;;;;;;5016378;28;20017;-79
2022/07/27 07:57:07;;;;;;;9.35;1.25;;;16.40;99.90;;;;;;4998859;28;20061;-79
2022/07/27 07:59:35;;;;;;;3.40;0.88;;;16.40;99.90;;;;;;4998870;28;20540;-79
2022/07/27 08:02:02;;;;;;;5.03;1.30;;;16.30;99.90;;;;;;5016561;28;20018;-79
2022/07/27 08:04:28;;;;;;;10.95;1.50;;;16.40;99.90;;;;;;5016276;28;20057;-79
2022/07/27 08:06:53;;;;;;;1.65;0.98;;;16.50;99.90;;;;;;5016327;28;20034;-79
2022/07/27 08:09:20;;;;;;;5.38;1.15;;;16.50;99.90;;;;;;5016026;28;20029;-80
2022/07/27 08:11:46;;;;;;;6.07;1.17;;;16.70;99.90;;;;;;5016426;28;20018;-79
2022/07/27 08:14:11;;;;;;;10.75;1.52;;;16.70;99.90;;;;;;5016237;28;20367;-79
2022/07/27 08:16:37;;;;;;;6.05;0.95;;;16.70;99.90;;;;;;5016371;28;20042;-79
2022/07/27 08:19:02;;;;;;;5.85;1.40;;;16.70;99.90;;;;;;5016230;28;20026;-79
2022/07/27 08:21:28;;;;;;;2.72;1.00;;;16.70;99.90;;;;;;5031304;28;20050;-79
2022/07/27 08:23:53;;;;;;;4.35;1.40;;;16.70;99.90;;;;;;5015619;28;20029;-79
2022/07/27 08:26:19;;;;;;;6.53;1.30;;;16.80;99.90;;;;;;5016118;28;20029;-79
2022/07/27 08:28:44;;;;;;;5.00;0.85;;;16.90;99.90;;;;;;5015772;28;20054;-79
2022/07/27 08:31:10;;;;;;;6.85;1.10;;;17.00;99.90;;;;;;4998354;28;20129;-79
2022/07/27 08:33:35;;;;;;;8.30;1.20;;;17.00;99.90;;;;;;5015950;28;20029;-79
2022/07/27 08:36:01;;;;;;;7.72;1.40;;;17.00;99.90;;;;;;5015874;28;20112;-79
2022/07/27 08:38:27;;;;;;;5.63;0.80;;;17.00;99.90;;;;;;5015514;28;20030;-79
2022/07/27 08:40:55;;;;;;;6.28;1.35;;;17.00;99.90;;;;;;4998078;28;20018;-79
2022/07/27 08:43:20;;;;;;;7.47;1.08;;;17.00;99.90;;;;;;5015490;28;20030;-79
2022/07/27 08:45:57;;;;;;;5.50;1.10;;;17.00;99.90;;;;;;4998590;28;20077;-79
2022/07/27 08:48:25;;;;;;;3.50;1.00;;;17.00;99.90;;;;;;4998062;28;20049;-79
2022/07/27 08:50:54;;;;;;;5.88;0.98;;;17.00;99.90;;;;;;5015671;28;20034;-79
2022/07/27 08:53:21;;;;;;;8.25;1.20;;;17.00;99.90;;;;;;5014429;28;20466;-79
2022/07/27 08:55:46;;;;;;;5.57;1.42;;;17.10;99.90;;;;;;5015398;28;20034;-79
2022/07/27 08:58:13;;;;;;;2.55;0.80;;;17.20;99.90;;;;;;5015362;28;20033;-79
2022/07/27 09:00:42;;;;;;;6.43;1.20;;;17.20;99.90;;;;;;5015345;28;20097;-79
2022/07/27 09:03:12;;;;;;;7.45;1.17;;;17.30;99.90;;;;;;4997692;28;20496;-79
2022/07/27 09:05:43;;;;;;;8.07;1.30;;;17.40;99.90;;;;;;5015175;28;20095;-79
2022/07/27 09:08:15;;;;;;;10.65;1.50;;;17.30;99.90;;;;;;5014928;28;20022;-79
2022/07/27 09:10:41;;;;;;;5.97;1.55;;;17.30;99.90;;;;;;5015255;28;20101;-80
2022/07/27 09:13:20;;;;;;;8.60;1.42;;;17.30;99.90;;;;;;5015291;28;20034;-79
2022/07/27 09:15:52;;;;;;;6.85;1.48;;;17.40;99.90;;;;;;5015222;28;20029;-78
2022/07/27 09:18:24;;;;;;;7.85;2.17;;;17.50;99.90;;;;;;5014908;28;20022;-79
2022/07/27 09:21:15;;;;;;;4.25;0.95;;;17.60;99.90;;;;;;5014994;28;20022;-79
2022/07/27 09:23:47;;;;;;;5.60;1.13;;;17.70;99.90;;;;;;5007115;28;20091;-79
2022/07/27 09:26:18;;;;;;;7.15;1.00;;;17.70;99.90;;;;;;5014692;28;20033;-79
2022/07/27 09:28:44;;;;;;;10.52;1.10;;;17.60;99.90;;;;;;5014814;28;20046;-79
2022/07/27 09:31:15;;;;;;;8.65;1.13;;;17.70;99.90;;;;;;5018304;28;20083;-79
2022/07/27 09:33:51;;;;;;;9.38;1.98;;;17.80;99.90;;;;;;5034228;28;20037;-79
2022/07/27 09:36:21;;;;;;;6.82;1.85;;;17.80;99.90;;;;;;5016342;28;20044;-78
2022/07/27 09:38:54;;;;;;;7.82;1.40;;;17.90;99.90;;;;;;5034170;28;20014;-79
2022/07/27 09:41:22;;;;;;;3.30;0.82;;;17.90;99.90;;;;;;5034252;28;20115;-79
2022/07/27 09:43:51;;;;;;;4.88;1.02;;;18.00;99.90;;;;;;5040242;28;20068;-79
2022/07/27 09:46:28;;;;;;;3.08;0.90;;;18.20;99.90;;;;;;5036782;28;20095;-79
2022/07/27 09:48:54;;;;;;;10.80;2.90;;;18.40;99.90;;;;;;5034022;28;20030;-80
2022/07/27 09:51:23;;;;;;;3.60;1.15;;;18.40;99.90;;;;;;5029746;28;20045;-79
2022/07/27 09:53:50;;;;;;;12.40;1.55;;;18.30;99.90;;;;;;5033882;28;20026;-79
2022/07/27 09:56:16;;;;;;;6.07;1.42;;;18.30;99.90;;;;;;5045905;28;20388;-79
2022/07/27 09:58:48;;;;;;;6.03;1.30;;;18.30;99.90;;;;;;5054180;28;20021;-79
2022/07/27 10:01:20;;;;;;;3.40;0.95;;;18.30;99.90;;;;;;5033563;28;20380;-79
2022/07/27 10:03:47;;;;;;;11.18;1.50;;;18.30;99.90;;;;;;5034088;28;20412;-79
2022/07/27 10:06:15;;;;;;;4.60;0.70;;;18.20;99.90;;;;;;5033524;28;20049;-79
2022/07/27 10:08:43;;;;;;;6.03;1.35;;;18.10;99.90;;;;;;5033205;28;20037;-79
2022/07/27 10:11:10;;;;;;;7.45;1.20;;;18.00;99.90;;;;;;5027216;28;20031;-80
2022/07/27 10:13:35;;;;;;;6.32;1.20;;;18.00;99.90;;;;;;5035721;28;20036;-80
2022/07/27 10:16:06;;;;;;;5.15;0.80;;;18.10;99.90;;;;;;5042394;28;20377;-79
2022/07/27 10:18:57;;;;;;;5.22;0.98;;;18.10;99.90;;;;;;5037613;28;20107;-79
2022/07/27 10:21:24;;;;;;;3.45;0.80;;;18.20;99.90;;;;;;5037397;28;20486;-79
2022/07/27 10:24:02;;;;;;;2.95;0.90;;;18.30;99.90;;;;;;5032268;28;20025;-79
2022/07/27 10:26:32;;;;;;;3.15;1.17;;;18.60;99.30;;;;;;5013796;28;20038;-80
2022/07/27 10:29:13;;;;;;;6.05;1.23;;;18.80;99.90;;;;;;5026329;28;20041;-79
2022/07/27 10:31:42;;;;;;;3.80;1.05;;;18.90;98.90;;;;;;5041841;28;20057;-79
2022/07/27 10:34:11;;;;;;;8.10;1.52;;;19.00;96.90;;;;;;5030589;28;20520;-79
2022/07/27 10:36:46;;;;;;;14.63;1.17;;;19.00;96.80;;;;;;5033154;28;20032;-79
2022/07/27 10:39:32;;;;;;;5.50;1.35;;;19.10;97.50;;;;;;5016918;28;20030;-79
2022/07/27 10:42:20;;;;;;;;;;;19.20;94.80;;;;;;5027100;28;20032;-79
2022/07/27 10:45:11;;;;;;;5.13;0.95;;;19.10;95.70;;;;;;5047936;28;19909;-79
2022/07/27 10:47:43;;;;;;;4.10;1.20;;;19.10;95.90;;;;;;5033362;28;20033;-79
2022/07/27 10:50:15;;;;;;;8.10;1.33;;;19.00;93.20;;;;;;5032764;28;20401;-79
2022/07/27 10:52:44;;;;;;;8.95;1.40;;;19.00;94.50;;;;;;5032457;28;20033;-79
2022/07/27 10:55:30;;;;;;;7.07;1.45;;;19.00;95.40;;;;;;5032767;28;20069;-79
2022/07/27 10:58:34;;;;;;;8.30;1.30;;;19.10;92.70;;;;;;5033057;28;20111;-79
2022/07/27 11:01:06;;;;;;;3.65;1.00;;;19.00;91.90;;;;;;5032948;28;20484;-79
2022/07/27 11:03:38;;;;;;;5.78;1.10;;;19.00;92.00;;;;;;5036447;28;20026;-79
2022/07/27 11:06:17;;;;;;;3.08;0.77;;;19.10;85.70;;;;;;5032764;28;20104;-79
2022/07/27 11:08:44;;;;;;;5.00;1.10;;;19.00;87.30;;;;;;5031657;28;20107;-79
2022/07/27 11:11:14;;;;;;;6.60;1.60;;;19.00;88.00;;;;;;5033018;28;20026;-79
2022/07/27 11:13:40;;;;;;;7.95;1.58;;;19.00;90.20;;;;;;5031436;28;20489;-79
2022/07/27 11:16:09;;;;;;;8.27;1.50;;;19.00;91.90;;;;;;5031510;28;20040;-80
2022/07/27 11:18:38;;;;;;;8.45;1.05;;;19.00;92.20;;;;;;5031460;28;20021;-80
2022/07/27 11:21:19;;;;;;;6.88;1.17;;;18.90;92.30;;;;;;5027404;28;20017;-79
2022/07/27 11:23:51;;;;;;;9.20;1.30;;;19.00;91.60;;;;;;5020258;28;20028;-80
2022/07/27 11:26:18;;;;;;;8.93;1.58;;;19.10;92.70;;;;;;5015913;28;20022;-79
2022/07/27 11:28:44;;;;;;;8.90;1.73;;;19.10;92.00;;;;;;5031475;28;20056;-79
2022/07/27 11:31:12;;;;;;;6.60;1.27;;;19.10;91.80;;;;;;5031760;28;20454;-79
2022/07/27 11:33:52;;;;;;;3.72;1.27;;;19.20;90.30;;;;;;5014545;28;20392;-80
2022/07/27 11:36:19;;;;;;;5.05;1.10;;;19.10;87.90;;;;;;5015776;28;20038;-79
2022/07/27 11:38:45;;;;;;;8.65;2.10;;;19.00;88.20;;;;;;5020792;28;20061;-79
2022/07/27 11:41:20;;;;;;;5.15;1.40;;;18.90;81.50;;;;;;5032337;28;20420;-79
2022/07/27 11:43:46;;;;;;;4.68;1.50;;;18.90;88.80;;;;;;5037408;28;20033;-79
2022/07/27 11:46:29;;;;;;;1.88;0.82;;;19.00;82.70;;;;;;5043302;28;20048;-79
2022/07/27 11:48:58;;;;;;;5.57;1.20;;;19.00;86.10;;;;;;5029190;28;20037;-79
2022/07/27 11:51:25;;;;;;;4.25;1.27;;;19.20;81.70;;;;;;5034230;28;20029;-79
2022/07/27 11:54:02;;;;;;;5.13;1.42;;;19.40;83.40;;;;;;5015091;28;20076;-79
2022/07/27 11:56:31;;;;;;;5.35;1.50;;;19.50;81.50;;;;;;5026355;28;20037;-79
2022/07/27 11:59:12;;;;;;;5.28;1.05;;;19.60;79.00;;;;;;5027528;28;20017;-79
2022/07/27 12:01:46;;;;;;;5.85;1.25;;;19.60;79.30;;;;;;5033267;28;20040;-80
2022/07/27 12:04:36;;;;;;;7.35;1.20;;;19.70;79.50;;;;;;5038810;28;20025;-79
2022/07/27 12:07:09;;;;;;;5.35;1.08;;;19.80;73.00;;;;;;5031952;28;20071;-79
2022/07/27 12:09:47;;;;;;;3.67;0.85;;;19.90;79.00;;;;;;5032637;28;20017;-79
2022/07/27 12:12:13;;;;;;;5.18;1.20;;;19.90;78.40;;;;;;5011412;28;20488;-79
2022/07/27 12:14:56;;;;;;;6.72;1.40;;;20.00;75.10;;;;;;5023695;28;20088;-80
2022/07/27 12:17:29;;;;;;;3.97;1.25;;;20.20;72.60;;;;;;5052086;28;20025;-80
2022/07/27 12:20:06;;;;;;;7.47;1.10;;;20.20;67.50;;;;;;5031653;28;20030;-80
2022/07/27 12:22:37;;;;;;;10.00;1.50;;;20.20;68.40;;;;;;5030869;28;20064;-80
2022/07/27 12:25:24;;;;;;;8.20;1.42;;;20.40;65.40;;;;;;5034380;28;20029;-80
2022/07/27 12:28:11;;;;;;;9.43;1.90;;;20.40;62.80;;;;;;5048427;28;20056;-79
2022/07/27 12:30:46;;;;;;;3.10;0.80;;;20.50;64.20;;;;;;5029872;28;20030;-79
2022/07/27 12:33:31;;;;;;;4.97;0.90;;;20.50;64.80;;;;;;5024076;28;20025;-79
2022/07/27 12:35:58;;;;;;;6.03;0.93;;;20.50;64.20;;;;;;5030332;28;20144;-79
2022/07/27 12:38:44;;;;;;;7.45;1.17;;;20.60;63.20;;;;;;5045597;28;20029;-79
2022/07/27 12:41:21;;;;;;;5.30;1.42;;;20.60;65.40;;;;;;5024723;28;20025;-79
2022/07/27 12:44:09;;;;;;;5.93;1.23;;;20.70;65.80;;;;;;5018028;28;20025;-78
2022/07/27 12:46:58;;;;;;;7.97;1.50;;;20.80;61.50;;;;;;5043410;28;20036;-78
2022/07/27 12:49:24;;;;;;;4.40;1.15;;;20.80;61.60;;;;;;5030505;28;20511;-79
2022/07/27 12:51:50;;;;;;;2.83;1.08;;;20.70;59.40;;;;;;5039696;28;20067;-79
2022/07/27 12:54:17;;;;;;;4.38;1.15;;;20.70;59.20;;;;;;5051220;28;20064;-79
2022/07/27 12:56:42;;;;;;;6.82;1.00;;;20.70;59.20;;;;;;5035132;28;20028;-81
2022/07/27 12:59:08;;;;;;;4.85;0.95;;;20.60;58.30;;;;;;5033424;28;20021;-81